Flight Track Log - Related Links

Times and Time Zones

All times are in EDT time to prevent confusion due to time zone crossing. See the SWA1199 flight status page for this flight to view local times or setup timezone preferences in your user account.

Time Position Orientation Groundspeed Altitude Reporting Facility
EDT Latitude Longitude Course Direction KTS MPH feet Rate Location/Type
Wed 07:26:46 AM 29.5247 -98.4636 110° East 154 177 1,700  Level Houston Center
Wed 07:28:13 AM 29.4997 -98.3836 110° East 227 261 5,600 2,919 Climbing Houston Center
Wed 07:29:14 AM 29.5522 -98.3389 37° Northeast 237 273 8,900 2,613 Climbing Houston Center
Wed 07:30:17 AM 29.5725 -98.2558 74° East 277 319 11,000 2,803 Climbing Houston Center
Wed 07:31:16 AM 29.5939 -98.1461 77° East 326 375 14,600 2,850 Climbing Houston Center
Wed 07:32:17 AM 29.6131 -98.0419 78° East 334 384 16,700 2,066 Climbing Houston Center
Wed 07:33:18 AM 29.6347 -97.9253 78° East 371 427 18,800 2,115 Climbing Houston Center
Wed 07:34:19 AM 29.6539 -97.8175 78° East 374 430 21,000 2,016 Climbing Houston Center
Wed 07:35:20 AM 29.6544 -97.6919 90° East 388 447 22,900 1,967 Climbing Houston Center
Wed 07:36:21 AM 29.6564 -97.5647 89° East 396 456 25,000 1,820 Climbing Houston Center
Wed 07:37:22 AM 29.6531 -97.4369 92° East 401 461 26,600 1,574 Climbing Houston Center
Wed 07:38:23 AM 29.6411 -97.3036 96° East 415 478 28,200 1,525 Climbing Houston Center
Wed 07:39:24 AM 29.6311 -97.1694 95° East 419 482 29,700 1,279 Climbing Houston Center
Wed 07:40:25 AM 29.6189 -97.0306 96° East 431 496 30,800 1,230 Climbing Houston Center
Wed 07:41:26 AM 29.6075 -96.8872 95° East 443 510 32,200 1,623 Climbing Houston Center
Wed 07:42:27 AM 29.5967 -96.7464 95° East 439 505 34,100 1,623 Climbing Houston Center
Wed 07:43:28 AM 29.5844 -96.6117 96° East 424 488 35,500 1,230 Climbing Houston Center
Wed 07:44:29 AM 29.5703 -96.4464 96° East 430 495 36,600 732 Climbing Houston Center
Wed 07:45:31 AM 29.5586 -96.3125 96° East 426 490 37,000 195 Climbing Houston Center
Wed 07:46:32 AM 29.5478 -96.1783 95° East 422 486 37,000  Level Houston Center
Wed 07:47:34 AM 29.5992 -96.0608 63° Northeast 415 478 37,000  Level Houston Center
Wed 07:48:36 AM 29.6550 -95.9486 60° Northeast 408 470 37,000  Level Houston Center
Wed 07:49:36 AM 29.7128 -95.8350 60° Northeast 409 471 37,000  Level Houston Center
Wed 07:50:37 AM 29.7708 -95.7194 60° Northeast 414 476 37,000  Level Houston Center
Wed 07:51:38 AM 29.8292 -95.6042 60° Northeast 416 479 37,000  Level Houston Center
Wed 07:52:39 AM 29.8875 -95.4886 60° Northeast 417 480 37,000  Level Houston Center
Wed 07:53:41 AM 29.9461 -95.3733 60° Northeast 417 480 37,000  Level Houston Center
Wed 07:54:42 AM 30.0358 -95.2883 39° Northeast 424 488 37,000  Level Houston Center
Wed 07:55:43 AM 30.1317 -95.2156 33° Northeast 415 478 37,000  Level Houston Center
Wed 07:56:45 AM 30.2294 -95.1411 33° Northeast 418 481 37,000  Level Houston Center
Wed 07:57:46 AM 30.3450 -95.0522 34° Northeast 416 479 37,000  Level Houston Center
Wed 07:58:47 AM 30.4456 -94.9742 34° Northeast 416 479 37,000  Level Houston Center
Wed 07:59:48 AM 30.5417 -94.9011 33° Northeast 413 475 37,000  Level Houston Center
Wed 08:00:50 AM 30.6383 -94.8261 34° Northeast 416 479 37,000  Level Houston Center
Wed 08:01:51 AM 30.7350 -94.7522 33° Northeast 417 480 37,000  Level Houston Center
Wed 08:02:52 AM 30.8300 -94.6758 35° Northeast 418 481 37,000  Level Houston Center
Wed 08:03:54 AM 30.9267 -94.6031 33° Northeast 423 487 37,000  Level Houston Center
Wed 08:04:55 AM 31.0206 -94.5275 35° Northeast 427 491 37,000  Level Houston Center
Wed 08:05:56 AM 31.1353 -94.4394 33° Northeast 417 480 37,000  Level Houston Center
Wed 08:06:58 AM 31.2325 -94.3672 32° Northeast 415 478 37,000  Level Houston Center
Wed 08:07:59 AM 31.3272 -94.2917 34° Northeast 414 476 37,000  Level Houston Center
Wed 08:09:00 AM 31.4242 -94.2178 33° Northeast 416 479 37,000  Level Houston Center
Wed 08:10:02 AM 31.5206 -94.1425 34° Northeast 417 480 37,000  Level Houston Center
Wed 08:11:03 AM 31.6167 -94.0669 34° Northeast 416 479 37,000  Level Houston Center
Wed 08:12:05 AM 31.7119 -93.9914 34° Northeast 414 476 37,000  Level Houston Center
Wed 08:13:06 AM 31.8061 -93.9175 34° Northeast 414 476 37,000  Level Houston Center
Wed 08:14:07 AM 31.9214 -93.8261 34° Northeast 415 478 37,000  Level Houston Center
Wed 08:15:09 AM 32.0175 -93.7494 34° Northeast 416 479 37,000  Level Houston Center
Wed 08:16:10 AM 32.1147 -93.6717 34° Northeast 416 479 37,000  Level Houston Center
Wed 08:17:12 AM 32.2097 -93.5956 34° Northeast 416 479 37,000  Level Houston Center
Wed 08:18:33 AM 32.3339 -93.4869 36° Northeast 416 479 37,000  Level Fort Worth Center
Wed 08:19:33 AM 32.4317 -93.4114 33° Northeast 416 479 37,000  Level Fort Worth Center
Wed 08:20:33 AM 32.5272 -93.3333 35° Northeast 416 479 37,000  Level Fort Worth Center
Wed 08:21:33 AM 32.6247 -93.2547 34° Northeast 416 479 37,000  Level Fort Worth Center
Wed 08:22:33 AM 32.7206 -93.1814 33° Northeast 410 472 37,000  Level Fort Worth Center
Wed 08:23:34 AM 32.8181 -93.1025 34° Northeast 410 472 37,000  Level Fort Worth Center
Wed 08:24:33 AM 32.9133 -93.0236 35° Northeast 410 472 37,000  Level Fort Worth Center
Wed 08:25:33 AM 33.0086 -92.9447 35° Northeast 410 472 37,000  Level Fort Worth Center
Wed 08:26:33 AM 33.1061 -92.8656 34° Northeast 410 472 37,000  Level Fort Worth Center
Wed 08:28:45 AM 33.3039 -92.6764 39° Northeast 436 502 37,000  Level Memphis Center
Wed 08:29:45 AM 33.3811 -92.5614 51° Northeast 428 493 37,000  Level Memphis Center
Wed 08:30:45 AM 33.4519 -92.4511 52° Northeast 428 493 37,000  Level Memphis Center
Wed 08:31:45 AM 33.5289 -92.3383 51° Northeast 428 493 37,000  Level Memphis Center
Wed 08:32:45 AM 33.5994 -92.2253 53° Northeast 428 493 37,000  Level Memphis Center
Wed 08:33:45 AM 33.6742 -92.1119 52° Northeast 428 493 37,000  Level Memphis Center
Wed 08:34:45 AM 33.7508 -91.9961 51° Northeast 428 493 37,000  Level Memphis Center
Wed 08:35:45 AM 33.8253 -91.8825 52° Northeast 428 493 37,000  Level Memphis Center
Wed 08:36:45 AM 33.8978 -91.7686 52° Northeast 428 493 37,000  Level Memphis Center
Wed 08:37:45 AM 33.9719 -91.6497 53° Northeast 422 486 37,000  Level Memphis Center
Wed 08:38:45 AM 34.0461 -91.5303 53° Northeast 422 486 37,000  Level Memphis Center
Wed 08:39:45 AM 34.1181 -91.4186 52° Northeast 435 501 37,000  Level Memphis Center
Wed 08:40:45 AM 34.1839 -91.2911 58° Northeast 435 501 37,000  Level Memphis Center
Wed 08:41:45 AM 34.2411 -91.1611 62° Northeast 429 494 37,000  Level Memphis Center
Wed 08:42:45 AM 34.3003 -91.0283 62° Northeast 443 510 37,000  Level Memphis Center
Wed 08:43:45 AM 34.3636 -90.8931 60° Northeast 453 521 37,000  Level Memphis Center
Wed 08:44:45 AM 34.4225 -90.7600 62° Northeast 453 521 37,000  Level Memphis Center
Wed 08:45:45 AM 34.4750 -90.6417 62° Northeast 453 521 37,000  Level Memphis Center
Wed 08:46:45 AM 34.5378 -90.5083 60° Northeast 453 521 37,000  Level Memphis Center
Wed 08:47:45 AM 34.5881 -90.3722 66° East 444 511 37,000  Level Memphis Center
Wed 08:48:45 AM 34.6275 -90.2258 72° East 444 511 37,000  Level Memphis Center
Wed 08:49:45 AM 34.6606 -90.0819 74° East 444 511 37,000  Level Memphis Center
Wed 08:50:45 AM 34.6875 -89.9328 78° East 444 511 37,000  Level Memphis Center
Wed 08:51:45 AM 34.7097 -89.7811 80° East 449 517 37,000  Level Memphis Center
Wed 08:52:45 AM 34.7675 -89.6367 64° Northeast 458 527 37,000 -350 Level Memphis Center
Wed 08:53:45 AM 34.8375 -89.5044 57° Northeast 458 527 36,300 -850 Descending Memphis Center
Wed 08:54:45 AM 34.9033 -89.3797 57° Northeast 453 521 35,300 -1,000 Descending Memphis Center
Wed 08:55:45 AM 34.9689 -89.2472 59° Northeast 448 516 34,300 -950 Descending Memphis Center
Wed 08:56:45 AM 35.0344 -89.1169 58° Northeast 454 522 33,400 -1,000 Descending Memphis Center
Wed 08:57:45 AM 35.0997 -88.9839 59° Northeast 454 522 32,300 -1,000 Descending Memphis Center
Wed 08:58:45 AM 35.1567 -88.8458 63° Northeast 449 517 31,400 -650 Descending Memphis Center
Wed 08:59:45 AM 35.2006 -88.6825 72° East 459 528 31,000 -200 Descending Memphis Center
Wed 09:00:45 AM 35.2378 -88.5292 73° East 459 528 31,000  Level Memphis Center
Wed 09:01:45 AM 35.2794 -88.3833 71° East 457 526 31,000 -200 Level Memphis Center
Wed 09:02:45 AM 35.3272 -88.2397 68° East 457 526 30,600 -700 Descending Memphis Center
Wed 09:03:45 AM 35.4044 -88.1231 51° Northeast 437 503 29,600 -1,050 Descending Memphis Center
Wed 09:04:45 AM 35.4817 -88.0114 50° Northeast 427 491 28,500 -1,200 Descending Memphis Center
Wed 09:05:45 AM 35.5564 -87.8969 51° Northeast 421 484 27,200 -1,650 Descending Memphis Center
Wed 09:06:45 AM 35.6233 -87.8031 49° Northeast 421 484 25,200 -2,250 Descending Memphis Center
Wed 09:07:45 AM 35.6942 -87.6986 50° Northeast 402 463 22,700 -2,400 Descending Memphis Center
Wed 09:08:45 AM 35.7628 -87.5967 50° Northeast 388 447 20,400 -2,250 Descending Memphis Center
Wed 09:09:45 AM 35.8253 -87.4922 54° Northeast 382 440 18,200 -2,200 Descending Memphis Center
Wed 09:10:45 AM 35.8661 -87.3753 67° East 364 419 16,000 -2,250 Descending Memphis Center
Wed 09:11:45 AM 35.9072 -87.2636 66° East 359 413 13,700 -2,200 Descending Memphis Center
Wed 09:12:45 AM 35.9442 -87.1572 67° East 347 399 11,600 -1,900 Descending Memphis Center
Wed 09:13:45 AM 35.9872 -87.0503 64° Northeast 341 392 9,900 -1,750 Descending Memphis Center
Wed 09:14:45 AM 36.0303 -86.9486 62° Northeast 320 368 8,100 -1,750 Descending Memphis Center
Wed 09:15:45 AM 36.0694 -86.8519 63° Northeast 314 361 6,400 -1,300 Descending Memphis Center
Wed 09:16:45 AM 36.1197 -86.7881 46° Northeast 267 307 5,500 -750 Descending Memphis Center
Wed 09:17:45 AM 36.1858 -86.7647 16° North 246 283 4,900 -750 Descending Memphis Center
Wed 09:18:45 AM 36.2456 -86.7414 17° North 233 268 4,000 -850 Descending Memphis Center
Wed 09:19:45 AM 36.3053 -86.7181 17° North 222 255 3,200 -500 Descending Memphis Center
Wed 09:20:45 AM 36.3417 -86.6831 38° Northeast 169 194 3,000 -100 Descending Memphis Center
Wed 09:21:45 AM 36.3231 -86.6169 109° East 141 162 3,000  Level Memphis Center
Wed 09:22:45 AM 36.2808 -86.5981 160° South 133 153 3,000 -409 Level Memphis Center
Wed 09:24:41 AM 36.2000 -86.6333 199° South 157 181 1,800 -614 Descending Nashville TRACON
Wed 09:25:41 AM 36.1667 -86.6500 202° Southwest 108 124 1,200 -600 Descending Nashville TRACON
Wed 09:27:00 AM 36.1167 -86.6667 191° South  Level FlightAware Approximate
Wed 09:34:00 AM 36.1245 -86.6782 191° South  Level Estimated
Wed 09:35:00 AM 36.1245 -86.6782 191° South  Level Estimated
Wed 09:36:00 AM 36.1245 -86.6782 191° South  Level Estimated
Wed 09:37:00 AM 36.1245 -86.6782 191° South  Level Estimated
Wed 09:38:00 AM 36.1245 -86.6782 191° South  Level Estimated
Wed 09:39:00 AM 36.1245 -86.6782 191° South  Level Estimated
Wed 09:40:00 AM 36.1245 -86.6782 191° South  Level Estimated
Wed 09:41:00 AM 36.1245 -86.6782 191° South  Level Estimated
Wed 09:42:00 AM 36.1245 -86.6782 191° South  Level Estimated

Login

Don't have an account? Register now (free) for customized features, flight alerts, and more!